createdAt,value
2022-09-27T00:01:10.000Z,10.80
2022-09-27T00:06:16.160Z,10.80
2022-09-27T00:08:43.426Z,10.70
2022-09-27T00:11:23.480Z,10.80
2022-09-27T00:13:50.228Z,10.80
2022-09-27T00:16:19.255Z,10.80
2022-09-27T00:18:45.995Z,10.80
2022-09-27T00:21:15.504Z,10.80
2022-09-27T00:23:45.273Z,10.80
2022-09-27T00:26:13.830Z,10.70
2022-09-27T00:28:40.654Z,10.70
2022-09-27T00:31:30.204Z,10.70
2022-09-27T00:33:59.310Z,10.60
2022-09-27T00:36:32.463Z,10.60
2022-09-27T00:39:00.199Z,10.60
2022-09-27T00:41:35.120Z,10.60
2022-09-27T00:44:05.876Z,10.60
2022-09-27T00:46:46.245Z,11.10
2022-09-27T00:49:38.402Z,10.60
2022-09-27T00:52:57.310Z,10.60
2022-09-27T00:55:33.481Z,10.50
2022-09-27T00:58:01.066Z,10.50
2022-09-27T01:00:27.869Z,10.60
2022-09-27T01:03:01.377Z,10.60
2022-09-27T01:05:33.322Z,10.60
2022-09-27T01:08:01.133Z,10.60
2022-09-27T01:10:40.771Z,10.60
2022-09-27T01:15:49.377Z,10.60
2022-09-27T01:21:03.801Z,10.60
2022-09-27T01:24:03.814Z,10.70
2022-09-27T01:26:55.403Z,10.70
2022-09-27T01:29:58.726Z,10.60
2022-09-27T01:32:44.634Z,10.50
2022-09-27T01:35:19.693Z,10.40
2022-09-27T01:37:58.349Z,10.50
2022-09-27T01:40:36.730Z,10.40
2022-09-27T01:43:18.157Z,10.40
2022-09-27T01:46:21.703Z,10.40
2022-09-27T01:48:51.452Z,10.40
2022-09-27T01:51:30.486Z,10.50
2022-09-27T01:54:02.586Z,10.50
2022-09-27T01:56:47.239Z,10.40
2022-09-27T01:59:29.650Z,10.40
2022-09-27T02:02:00.258Z,10.60
2022-09-27T02:04:33.817Z,10.50
2022-09-27T02:07:24.762Z,10.50
2022-09-27T02:10:27.762Z,10.50
2022-09-27T02:13:15.599Z,10.50
2022-09-27T02:16:02.891Z,10.50
2022-09-27T02:18:43.884Z,10.50
2022-09-27T02:21:13.833Z,10.50
2022-09-27T02:23:48.696Z,10.50
2022-09-27T02:26:20.468Z,10.40
2022-09-27T02:28:59.927Z,10.40
2022-09-27T02:34:02.571Z,10.40
2022-09-27T02:36:30.390Z,10.40
2022-09-27T02:41:24.734Z,10.40
2022-09-27T02:43:59.073Z,10.40
2022-09-27T02:46:53.641Z,10.40
2022-09-27T02:49:31.512Z,10.40
2022-09-27T02:52:16.752Z,10.40
2022-09-27T02:57:22.912Z,10.30
2022-09-27T03:00:10.092Z,10.30
2022-09-27T03:02:57.665Z,10.30
2022-09-27T03:05:28.739Z,10.20
2022-09-27T03:07:55.677Z,10.20
2022-09-27T03:10:26.277Z,10.20
2022-09-27T03:12:54.424Z,10.20
2022-09-27T03:17:48.206Z,10.20
2022-09-27T03:22:42.255Z,10.20
2022-09-27T03:27:36.287Z,10.20
2022-09-27T03:42:20.743Z,10.30
2022-09-27T03:44:47.631Z,10.20
2022-09-27T03:47:14.322Z,10.10
2022-09-27T03:49:40.990Z,10.00
2022-09-27T03:52:07.693Z,10.00
2022-09-27T03:54:34.394Z,9.90
2022-09-27T03:57:01.066Z,9.90
2022-09-27T03:59:27.831Z,9.90
2022-09-27T04:04:23.920Z,9.80
2022-09-27T04:21:38.504Z,9.60
2022-09-27T04:33:54.768Z,9.50
2022-09-27T04:36:29.388Z,9.40
2022-09-27T04:38:58.381Z,9.40
2022-09-27T04:43:56.730Z,9.40
2022-09-27T04:46:26.125Z,9.50
2022-09-27T04:53:47.603Z,9.50
2022-09-27T05:03:37.559Z,9.40
2022-09-27T05:06:04.431Z,9.30
2022-09-27T05:10:58.508Z,9.30
2022-09-27T05:23:13.915Z,9.30
2022-09-27T05:25:40.883Z,9.40
2022-09-27T05:33:04.062Z,9.40
2022-09-27T05:35:31.718Z,9.30
2022-09-27T05:38:00.237Z,9.30
2022-09-27T05:40:42.828Z,9.30
2022-09-27T05:50:32.363Z,9.30
2022-09-27T05:52:59.101Z,9.40
2022-09-27T05:55:25.781Z,9.40
2022-09-27T05:58:01.776Z,9.50
2022-09-27T06:00:29.207Z,9.60
2022-09-27T06:02:58.760Z,9.60
2022-09-27T06:05:27.812Z,9.70
2022-09-27T06:08:00.526Z,9.70
2022-09-27T06:13:10.065Z,9.90
2022-09-27T06:15:39.157Z,10.00
2022-09-27T06:18:09.821Z,10.00
2022-09-27T06:20:37.953Z,10.10
2022-09-27T06:23:13.183Z,10.10
2022-09-27T06:28:09.425Z,10.10
2022-09-27T06:30:42.053Z,10.20
2022-09-27T06:33:14.910Z,10.20
2022-09-27T06:35:45.464Z,10.40
2022-09-27T06:38:17.513Z,10.20
2022-09-27T06:40:48.082Z,10.30
2022-09-27T06:43:17.511Z,10.30
2022-09-27T06:45:44.411Z,10.40
2022-09-27T06:48:13.907Z,10.40
2022-09-27T06:50:44.062Z,10.60
2022-09-27T06:53:13.159Z,10.60
2022-09-27T06:55:40.659Z,10.70
2022-09-27T06:58:26.513Z,10.60
2022-09-27T07:00:53.986Z,10.60
2022-09-27T07:03:23.189Z,10.70
2022-09-27T07:05:57.501Z,10.70
2022-09-27T07:08:27.128Z,10.80
2022-09-27T07:13:22.847Z,10.80
2022-09-27T07:15:49.573Z,10.90
2022-09-27T07:23:11.000Z,10.70
2022-09-27T07:25:37.755Z,10.70
2022-09-27T07:28:07.220Z,10.70
2022-09-27T07:30:35.565Z,10.70
2022-09-27T07:33:05.081Z,10.80
2022-09-27T07:35:31.987Z,10.80
2022-09-27T07:40:26.888Z,10.80
2022-09-27T07:42:59.805Z,10.70
2022-09-27T07:45:26.805Z,10.60
2022-09-27T07:47:54.164Z,10.60
2022-09-27T07:50:21.496Z,10.70
2022-09-27T07:52:52.516Z,10.70
2022-09-27T07:55:19.626Z,10.70
2022-09-27T07:57:46.598Z,10.70
2022-09-27T08:00:16.328Z,10.80
2022-09-27T08:02:44.371Z,10.80
2022-09-27T08:05:12.590Z,10.90
2022-09-27T08:07:40.676Z,10.90
2022-09-27T08:10:08.653Z,11.00
2022-09-27T08:12:36.039Z,11.00
2022-09-27T08:15:04.595Z,11.20
2022-09-27T08:17:32.544Z,11.20
2022-09-27T08:19:59.312Z,11.20
2022-09-27T08:22:26.034Z,11.30
2022-09-27T08:27:19.834Z,11.30
2022-09-27T08:29:47.777Z,11.40
2022-09-27T08:32:20.668Z,11.50
2022-09-27T08:34:49.695Z,11.70
2022-09-27T08:37:16.431Z,11.70
2022-09-27T08:42:32.983Z,12.10
2022-09-27T08:45:43.887Z,12.10
2022-09-27T08:50:42.648Z,12.40
2022-09-27T08:53:21.951Z,12.70
2022-09-27T08:55:51.379Z,13.10
2022-09-27T08:58:41.515Z,13.30
2022-09-27T09:01:16.580Z,13.50
2022-09-27T09:03:55.547Z,13.60
2022-09-27T09:06:45.778Z,14.00
2022-09-27T09:09:21.400Z,14.30
2022-09-27T09:12:32.583Z,14.30
2022-09-27T09:15:10.917Z,14.50
2022-09-27T09:17:56.380Z,14.50
2022-09-27T09:20:32.144Z,14.30
2022-09-27T09:23:29.590Z,14.40
2022-09-27T09:26:20.806Z,14.50
2022-09-27T09:28:59.463Z,14.40
2022-09-27T09:32:00.456Z,14.30
2022-09-27T09:34:34.369Z,14.40
2022-09-27T09:37:34.118Z,14.30
2022-09-27T09:40:17.737Z,14.10
2022-09-27T09:43:02.635Z,14.10
2022-09-27T09:45:36.181Z,14.00
2022-09-27T09:48:09.189Z,13.90
2022-09-27T09:50:42.555Z,13.60
2022-09-27T09:53:41.767Z,13.60
2022-09-27T09:56:22.772Z,13.60
2022-09-27T09:58:59.383Z,13.30
2022-09-27T10:01:33.432Z,13.30
2022-09-27T10:04:00.148Z,13.10
2022-09-27T10:08:55.898Z,12.80
2022-09-27T10:11:37.493Z,12.70
2022-09-27T10:14:08.747Z,12.60
2022-09-27T10:16:36.181Z,12.60
2022-09-27T10:19:04.610Z,12.60
2022-09-27T10:21:32.817Z,12.80
2022-09-27T10:24:05.891Z,13.00
2022-09-27T10:26:33.505Z,13.20
2022-09-27T10:29:14.737Z,13.30
2022-09-27T10:31:46.058Z,13.30
2022-09-27T10:34:30.789Z,13.40
2022-09-27T10:37:04.052Z,13.30
2022-09-27T10:39:31.258Z,13.30
2022-09-27T10:44:32.604Z,13.20
2022-09-27T10:47:07.013Z,13.00
2022-09-27T10:49:43.055Z,12.80
2022-09-27T10:52:21.445Z,12.60
2022-09-27T10:55:00.810Z,12.60
2022-09-27T10:57:31.505Z,12.60
2022-09-27T11:00:00.535Z,12.80
2022-09-27T11:02:34.169Z,13.00
2022-09-27T11:05:15.608Z,13.30
2022-09-27T11:07:52.658Z,13.50
2022-09-27T11:10:27.943Z,13.40
2022-09-27T11:13:20.078Z,13.50
2022-09-27T11:16:05.521Z,13.60
2022-09-27T11:18:50.443Z,13.60
2022-09-27T11:21:35.083Z,13.50
2022-09-27T11:24:50.462Z,13.30
2022-09-27T11:27:37.459Z,13.10
2022-09-27T11:30:20.693Z,13.20
2022-09-27T11:33:17.399Z,13.30
2022-09-27T11:38:34.705Z,13.70
2022-09-27T11:41:59.198Z,14.10
2022-09-27T11:44:31.592Z,14.20
2022-09-27T11:47:21.601Z,14.20
2022-09-27T11:50:20.837Z,14.10
2022-09-27T11:53:30.022Z,14.10
2022-09-27T11:56:05.464Z,14.30
2022-09-27T11:58:42.301Z,14.30
2022-09-27T12:01:36.405Z,14.20
2022-09-27T12:04:24.766Z,13.90
2022-09-27T12:09:28.255Z,13.60
2022-09-27T12:12:01.084Z,13.50
2022-09-27T12:14:36.518Z,13.30
2022-09-27T12:17:07.723Z,13.20
2022-09-27T12:19:42.026Z,13.10
2022-09-27T12:22:15.638Z,13.10
2022-09-27T12:24:44.368Z,13.30
2022-09-27T12:27:17.862Z,13.10
2022-09-27T12:29:48.576Z,13.20
2022-09-27T12:32:22.365Z,13.30
2022-09-27T12:34:57.823Z,13.40
2022-09-27T12:37:43.912Z,13.30
2022-09-27T12:40:20.613Z,13.10
2022-09-27T12:42:56.194Z,12.90
2022-09-27T12:45:47.102Z,12.60
2022-09-27T12:48:36.858Z,12.50
2022-09-27T12:51:16.099Z,12.20
2022-09-27T12:54:09.104Z,12.00
2022-09-27T12:56:43.841Z,12.00
2022-09-27T12:59:30.483Z,12.00
2022-09-27T13:02:19.058Z,12.10
2022-09-27T13:05:01.895Z,12.10
2022-09-27T13:07:46.264Z,12.00
2022-09-27T13:10:30.230Z,11.90
2022-09-27T13:12:58.294Z,11.70
2022-09-27T13:15:34.293Z,11.50
2022-09-27T13:18:05.280Z,11.00
2022-09-27T13:20:31.877Z,10.90
2022-09-27T13:23:00.468Z,10.90
2022-09-27T13:25:55.625Z,11.00
2022-09-27T13:28:29.091Z,11.20
2022-09-27T13:30:56.852Z,11.20
2022-09-27T13:33:29.552Z,11.20
2022-09-27T13:36:24.498Z,11.30
2022-09-27T13:39:14.101Z,11.30
2022-09-27T13:41:46.631Z,11.40
2022-09-27T13:44:22.834Z,11.50
2022-09-27T13:47:02.896Z,11.70
2022-09-27T13:49:40.644Z,11.90
2022-09-27T13:52:27.559Z,11.90
2022-09-27T13:54:56.960Z,11.90
2022-09-27T13:57:46.077Z,12.20
2022-09-27T14:00:22.812Z,12.20
2022-09-27T14:03:11.096Z,12.40
2022-09-27T14:05:56.477Z,12.50
2022-09-27T14:08:33.044Z,12.60
2022-09-27T14:11:02.456Z,12.80
2022-09-27T14:13:32.065Z,12.80
2022-09-27T14:16:04.496Z,12.90
2022-09-27T14:18:32.731Z,13.00
2022-09-27T14:21:22.513Z,12.80
2022-09-27T14:26:25.296Z,12.70
2022-09-27T14:28:52.897Z,12.90
2022-09-27T14:31:23.146Z,12.80
2022-09-27T14:33:50.769Z,12.80
2022-09-27T14:39:13.391Z,12.90
2022-09-27T14:41:40.545Z,12.90
2022-09-27T14:44:23.550Z,12.90
2022-09-27T14:47:23.183Z,12.60
2022-09-27T14:49:50.926Z,12.50
2022-09-27T14:52:27.649Z,12.60
2022-09-27T14:54:59.471Z,12.50
2022-09-27T14:57:28.349Z,12.60
2022-09-27T14:59:57.723Z,12.30
2022-09-27T15:02:26.327Z,12.30
2022-09-27T15:04:54.732Z,12.40
2022-09-27T15:09:50.936Z,12.50
2022-09-27T15:12:26.086Z,12.70
2022-09-27T15:14:54.893Z,12.60
2022-09-27T15:17:22.495Z,12.60
2022-09-27T15:20:18.550Z,12.50
2022-09-27T15:22:51.563Z,12.20
2022-09-27T15:25:20.496Z,12.00
2022-09-27T15:27:55.848Z,11.90
2022-09-27T15:30:37.776Z,11.70
2022-09-27T15:33:06.098Z,11.60
2022-09-27T15:35:34.973Z,11.50
2022-09-27T15:38:12.216Z,11.50
2022-09-27T15:40:48.542Z,11.50
2022-09-27T15:43:29.983Z,11.50
2022-09-27T15:46:01.969Z,11.50
2022-09-27T15:48:33.551Z,11.50
2022-09-27T15:53:36.835Z,11.40
2022-09-27T15:56:06.472Z,11.40
2022-09-27T15:58:35.176Z,11.30
2022-09-27T16:01:07.853Z,11.20
2022-09-27T16:03:35.444Z,11.60
2022-09-27T16:06:05.005Z,11.50
2022-09-27T16:08:31.720Z,11.40
2022-09-27T16:10:59.932Z,11.20
2022-09-27T16:13:32.502Z,11.10
2022-09-27T16:16:01.715Z,11.00
2022-09-27T16:18:30.870Z,10.90
2022-09-27T16:20:58.693Z,10.70
2022-09-27T16:25:53.588Z,10.60
2022-09-27T16:28:20.647Z,10.60
2022-09-27T16:30:48.068Z,10.60
2022-09-27T16:33:14.877Z,10.60
2022-09-27T16:40:37.689Z,10.80
2022-09-27T16:43:07.310Z,10.80
2022-09-27T16:45:36.341Z,10.70
2022-09-27T16:48:03.496Z,10.60
2022-09-27T16:53:16.666Z,10.50
2022-09-27T17:00:38.162Z,10.50
2022-09-27T17:12:57.426Z,10.40
2022-09-27T17:15:24.076Z,10.40
2022-09-27T17:22:45.054Z,10.20
2022-09-27T17:27:38.880Z,10.20
2022-09-27T17:30:06.879Z,10.10
2022-09-27T17:32:34.803Z,10.10
2022-09-27T17:35:02.562Z,10.10
2022-09-27T17:37:29.534Z,10.10
2022-09-27T17:44:51.985Z,10.10
2022-09-27T17:50:23.196Z,10.20
2022-09-27T17:52:50.070Z,10.10
2022-09-27T17:57:46.092Z,10.00
2022-09-27T18:02:40.410Z,10.10
2022-09-27T18:07:34.460Z,10.20
2022-09-27T18:10:01.192Z,10.20
2022-09-27T18:12:34.824Z,10.20
2022-09-27T18:17:29.468Z,10.10
2022-09-27T18:22:31.148Z,10.10
2022-09-27T18:27:25.056Z,10.10
2022-09-27T18:29:52.522Z,10.10
2022-09-27T18:32:19.177Z,10.10
2022-09-27T18:37:12.948Z,10.10
2022-09-27T18:39:40.473Z,10.10
2022-09-27T18:49:33.847Z,10.00
2022-09-27T19:01:51.181Z,9.90
2022-09-27T19:04:26.664Z,9.90
2022-09-27T19:06:54.857Z,9.90
2022-09-27T19:09:21.703Z,9.80
2022-09-27T19:14:20.995Z,9.90
2022-09-27T19:19:16.770Z,9.80
2022-09-27T19:21:43.794Z,9.70
2022-09-27T19:29:06.594Z,9.60
2022-09-27T19:31:33.786Z,9.50
2022-09-27T19:36:28.918Z,9.60
2022-09-27T19:43:54.605Z,9.70
2022-09-27T19:46:22.920Z,9.70
2022-09-27T19:48:50.309Z,9.60
2022-09-27T19:51:22.156Z,9.60
2022-09-27T19:53:49.880Z,9.60
2022-09-27T20:01:15.991Z,9.60
2022-09-27T20:03:44.059Z,9.60
2022-09-27T20:06:13.682Z,9.50
2022-09-27T20:11:13.959Z,9.60
2022-09-27T20:13:41.222Z,9.60
2022-09-27T20:18:39.442Z,9.60
2022-09-27T20:23:34.656Z,9.60
2022-09-27T20:26:03.059Z,9.60
2022-09-27T20:28:29.889Z,9.60
2022-09-27T20:30:58.139Z,9.60
2022-09-27T20:33:43.820Z,9.70
2022-09-27T20:36:23.942Z,9.70
2022-09-27T20:41:20.205Z,9.70
2022-09-27T20:43:48.414Z,9.70
2022-09-27T20:46:17.446Z,9.70
2022-09-27T20:48:45.073Z,9.70
2022-09-27T20:51:16.392Z,9.80
2022-09-27T20:56:21.433Z,9.90
2022-09-27T20:58:49.765Z,9.80
2022-09-27T21:01:18.101Z,9.80
2022-09-27T21:03:45.591Z,9.80
2022-09-27T21:06:13.603Z,9.80
2022-09-27T21:08:41.030Z,9.80
2022-09-27T21:11:10.969Z,9.70
2022-09-27T21:13:39.459Z,10.40
2022-09-27T21:16:08.523Z,9.70
2022-09-27T21:18:35.474Z,9.70
2022-09-27T21:21:10.994Z,9.80
2022-09-27T21:23:43.470Z,9.80
2022-09-27T21:26:16.348Z,9.80
2022-09-27T21:28:55.043Z,9.80
2022-09-27T21:31:27.077Z,9.80
2022-09-27T21:33:58.465Z,9.80
2022-09-27T21:36:27.848Z,9.80
2022-09-27T21:38:55.372Z,9.90
2022-09-27T21:46:27.842Z,9.80
2022-09-27T21:48:59.958Z,9.80
2022-09-27T21:51:31.811Z,9.80
2022-09-27T21:54:00.822Z,9.80
2022-09-27T21:56:29.677Z,9.80
2022-09-27T22:01:26.646Z,9.60
2022-09-27T22:03:56.755Z,9.60
2022-09-27T22:06:29.275Z,9.60
2022-09-27T22:08:57.402Z,9.50
2022-09-27T22:11:36.460Z,9.50
2022-09-27T22:18:58.489Z,9.40
2022-09-27T22:21:28.331Z,9.40
2022-09-27T22:24:05.150Z,9.50
2022-09-27T22:26:36.593Z,9.40
2022-09-27T22:29:04.059Z,9.40
2022-09-27T22:31:30.794Z,9.40
2022-09-27T22:33:59.643Z,9.50
2022-09-27T22:36:27.836Z,9.50
2022-09-27T22:38:55.067Z,9.50
2022-09-27T22:41:22.124Z,9.50
2022-09-27T22:43:49.061Z,9.50
2022-09-27T22:46:16.163Z,9.60
2022-09-27T22:48:42.876Z,9.60
2022-09-27T22:51:09.744Z,9.60
2022-09-27T22:56:16.258Z,9.60
2022-09-27T22:58:44.077Z,9.50
2022-09-27T23:01:20.807Z,9.60
2022-09-27T23:03:49.504Z,9.60
2022-09-27T23:06:18.006Z,9.60
2022-09-27T23:08:45.114Z,9.70
2022-09-27T23:11:13.977Z,9.60
2022-09-27T23:13:42.696Z,9.60
2022-09-27T23:16:15.066Z,9.60
2022-09-27T23:18:42.432Z,9.60
2022-09-27T23:21:12.614Z,9.60
2022-09-27T23:23:42.043Z,9.60
2022-09-27T23:26:11.427Z,9.50
2022-09-27T23:31:09.269Z,9.50
2022-09-27T23:33:38.423Z,9.50
2022-09-27T23:38:33.278Z,9.40
2022-09-27T23:41:00.737Z,9.30
2022-09-27T23:43:27.682Z,9.30
2022-09-27T23:48:24.887Z,9.40
2022-09-27T23:50:52.364Z,9.40
2022-09-27T23:53:20.464Z,9.30
2022-09-27T23:55:48.504Z,9.30
